Time;durP1;ratioP1;P1;durP2;ratioP2;P2;SDS_P1;SDS_P2;PMS_P1;PMS_P2;Temp;Humidity;BMP_temperature;BMP_pressure;BME280_temperature;BME280_humidity;BME280_pressure;Samples;Min_cycle;Max_cycle;Signal;HPM_P1;HPM_P2
2022/01/02 00:01:50;;;;;;;17.55;7.72;;;11.90;99.90;;;;;;5112337;28;20058;-86
2022/01/02 00:04:20;;;;;;;13.75;8.02;;;11.80;99.90;;;;;;5079253;28;20166;-85
2022/01/02 00:06:53;;;;;;;13.85;7.60;;;11.80;99.90;;;;;;5078932;28;20150;-87
2022/01/02 00:09:36;;;;;;;13.50;7.25;;;11.80;99.90;;;;;;5096779;28;20131;-87
2022/01/02 00:12:13;;;;;;;12.25;7.70;;;11.80;99.90;;;;;;5096261;28;20051;-86
2022/01/02 00:14:46;;;;;;;14.63;8.00;;;11.80;99.90;;;;;;5080839;28;20442;-86
2022/01/02 00:17:12;;;;;;;11.73;8.13;;;11.80;99.90;;;;;;5129733;27;20051;-86
2022/01/02 00:19:45;;;;;;;15.27;7.93;;;11.80;99.90;;;;;;5078329;28;20054;-85
2022/01/02 00:22:15;;;;;;;12.30;8.27;;;11.80;99.90;;;;;;5130072;27;20054;-85
2022/01/02 00:24:45;;;;;;;14.18;7.90;;;11.70;99.90;;;;;;5091927;28;20047;-85
2022/01/02 00:27:11;;;;;;;12.77;8.40;;;11.70;99.90;;;;;;5107912;28;20043;-86
2022/01/02 00:29:38;;;;;;;15.38;8.57;;;11.70;99.90;;;;;;5095095;28;20048;-85
2022/01/02 00:32:06;;;;;;;13.82;8.32;;;11.60;99.90;;;;;;5111256;28;20051;-85
2022/01/02 00:34:33;;;;;;;15.85;8.52;;;11.60;99.90;;;;;;5095365;27;20051;-86
2022/01/02 00:36:59;;;;;;;12.88;8.70;;;11.60;99.90;;;;;;5077464;28;20418;-85
2022/01/02 00:39:25;;;;;;;17.25;8.43;;;11.60;99.90;;;;;;5094653;28;20055;-86
2022/01/02 00:41:55;;;;;;;12.32;8.13;;;11.60;99.90;;;;;;5111215;28;20047;-85
2022/01/02 00:44:52;;;;;;;14.27;8.63;;;11.60;99.90;;;;;;5128920;27;20044;-86
2022/01/02 00:47:31;;;;;;;18.00;8.40;;;11.60;99.90;;;;;;5111555;28;20055;-85
2022/01/02 00:50:26;;;;;;;15.68;9.00;;;11.70;99.90;;;;;;5093566;28;20496;-86
2022/01/02 00:52:52;;;;;;;15.77;9.30;;;11.60;99.90;;;;;;5101787;28;20066;-85
2022/01/02 00:55:20;;;;;;;16.52;8.73;;;11.60;99.90;;;;;;5077710;28;20055;-85
2022/01/02 00:58:03;;;;;;;18.83;9.77;;;11.60;99.90;;;;;;5110475;28;20395;-84
2022/01/02 01:00:29;;;;;;;20.42;9.00;;;11.60;99.90;;;;;;5094465;28;20047;-85
2022/01/02 01:02:56;;;;;;;17.85;9.13;;;11.60;99.90;;;;;;5059929;28;20048;-85
2022/01/02 01:05:31;;;;;;;17.30;9.73;;;11.50;99.90;;;;;;5094359;28;20392;-85
2022/01/02 01:07:59;;;;;;;15.23;8.68;;;11.50;99.90;;;;;;5127780;27;20130;-85
2022/01/02 01:10:27;;;;;;;16.63;9.77;;;11.60;99.90;;;;;;5094457;28;20368;-85
2022/01/02 01:12:55;;;;;;;15.13;9.40;;;11.60;99.90;;;;;;5094022;28;20070;-86
2022/01/02 01:15:21;;;;;;;19.23;9.23;;;11.60;99.90;;;;;;5128337;27;20809;-86
2022/01/02 01:17:47;;;;;;;21.88;10.35;;;11.70;99.90;;;;;;5077131;28;20052;-84
2022/01/02 01:20:14;;;;;;;14.32;9.15;;;11.60;99.90;;;;;;5112229;28;20122;-86
2022/01/02 01:22:40;;;;;;;14.18;8.13;;;11.60;99.90;;;;;;5094132;28;20085;-86
2022/01/02 01:25:11;;;;;;;20.10;9.98;;;11.70;99.90;;;;;;5127277;27;20046;-85
2022/01/02 01:27:38;;;;;;;16.60;9.35;;;11.70;99.90;;;;;;5077441;28;20472;-86
2022/01/02 01:30:04;;;;;;;18.23;9.55;;;11.70;99.90;;;;;;5093360;28;20131;-86
2022/01/02 01:32:29;;;;;;;16.25;10.00;;;11.80;99.90;;;;;;5127833;27;20056;-86
2022/01/02 01:34:55;;;;;;;18.23;9.57;;;11.70;99.90;;;;;;5110154;28;20055;-86
2022/01/02 01:37:21;;;;;;;18.20;9.75;;;11.70;99.90;;;;;;5110514;28;20054;-85
2022/01/02 01:39:46;;;;;;;16.80;9.43;;;11.70;99.90;;;;;;5093532;28;20417;-87
2022/01/02 01:42:12;;;;;;;16.60;10.10;;;11.70;99.90;;;;;;5093168;28;20372;-86
2022/01/02 01:44:51;;;;;;;20.30;10.40;;;11.70;99.90;;;;;;5110543;28;20130;-86
2022/01/02 01:47:17;;;;;;;21.08;10.70;;;11.70;99.90;;;;;;5094964;28;20082;-86
2022/01/02 01:49:42;;;;;;;16.92;10.60;;;11.70;99.90;;;;;;5111088;28;20139;-87
2022/01/02 01:52:08;;;;;;;18.27;9.68;;;11.60;99.90;;;;;;5059465;28;20070;-86
2022/01/02 01:54:34;;;;;;;21.73;10.93;;;11.60;99.90;;;;;;5109875;28;20130;-86
2022/01/02 01:56:59;;;;;;;19.00;10.35;;;11.80;99.90;;;;;;5109683;28;20100;-87
2022/01/02 01:59:25;;;;;;;17.60;9.85;;;11.70;99.90;;;;;;5093121;28;20047;-86
2022/01/02 02:01:51;;;;;;;18.67;10.20;;;11.80;99.90;;;;;;5093458;28;20519;-86
2022/01/02 02:04:16;;;;;;;21.15;10.70;;;11.70;99.90;;;;;;5092514;28;20052;-86
2022/01/02 02:06:43;;;;;;;17.52;9.63;;;11.70;99.90;;;;;;5093264;28;20047;-87
2022/01/02 02:09:08;;;;;;;25.45;10.85;;;11.70;99.90;;;;;;5075820;28;20055;-87
2022/01/02 02:11:36;;;;;;;24.33;10.80;;;11.80;99.90;;;;;;5110185;28;20043;-87
2022/01/02 02:14:04;;;;;;;17.42;10.50;;;11.70;99.90;;;;;;5092635;28;20062;-86
2022/01/02 02:16:30;;;;;;;21.98;10.98;;;11.70;99.90;;;;;;5093345;28;20495;-86
2022/01/02 02:18:55;;;;;;;22.17;10.38;;;11.60;99.90;;;;;;5059064;28;20051;-85
2022/01/02 02:21:34;;;;;;;19.77;11.23;;;11.60;99.90;;;;;;5110126;28;20119;-85
2022/01/02 02:24:00;;;;;;;22.65;11.32;;;11.60;99.90;;;;;;5093213;28;20067;-86
2022/01/02 02:26:26;;;;;;;22.50;12.20;;;11.60;99.90;;;;;;5093162;28;20162;-86
2022/01/02 02:28:52;;;;;;;19.83;10.43;;;11.60;99.90;;;;;;5093299;28;20131;-86
2022/01/02 02:31:17;;;;;;;17.92;10.32;;;11.60;99.90;;;;;;5109368;28;20236;-86
2022/01/02 02:33:43;;;;;;;20.95;10.30;;;11.60;99.90;;;;;;5093048;28;20052;-86
2022/01/02 02:36:09;;;;;;;20.98;10.68;;;11.70;99.90;;;;;;5109329;28;20514;-86
2022/01/02 02:38:38;;;;;;;19.85;10.75;;;11.70;99.90;;;;;;5075750;28;20071;-86
2022/01/02 02:41:03;;;;;;;26.00;11.25;;;11.60;99.90;;;;;;5109155;28;20407;-85
2022/01/02 02:43:35;;;;;;;22.33;10.90;;;11.60;99.90;;;;;;5109818;28;20048;-88
2022/01/02 02:51:37;;;;;;;20.17;11.13;;;11.60;99.90;;;;;;5111703;28;20050;-86
2022/01/02 02:54:03;;;;;;;32.15;12.98;;;11.60;99.90;;;;;;5097070;28;20047;-85
2022/01/02 02:56:42;;;;;;;24.70;10.70;;;11.50;99.90;;;;;;5063120;28;20055;-86
2022/01/02 02:59:08;;;;;;;19.48;10.88;;;11.60;99.90;;;;;;5097558;28;20480;-86
2022/01/02 03:01:33;;;;;;;23.95;11.60;;;11.60;99.90;;;;;;5096778;28;20063;-85
2022/01/02 03:03:59;;;;;;;22.77;11.85;;;11.50;99.90;;;;;;5113748;28;20074;-85
2022/01/02 03:06:25;;;;;;;20.00;11.13;;;11.50;99.90;;;;;;5095899;28;20078;-85
2022/01/02 03:08:51;;;;;;;28.33;12.52;;;11.50;99.90;;;;;;5113239;28;20047;-85
2022/01/02 03:11:20;;;;;;;27.00;12.50;;;11.50;99.90;;;;;;5096224;28;20052;-85
2022/01/02 03:13:46;;;;;;;23.73;12.38;;;11.50;99.90;;;;;;5096856;28;20475;-86
2022/01/02 03:16:12;;;;;;;22.77;12.30;;;11.50;99.90;;;;;;5113062;28;20084;-85
2022/01/02 03:18:38;;;;;;;24.50;12.63;;;12.60;99.90;;;;;;5096186;28;20603;-87
2022/01/02 03:21:04;;;;;;;22.88;12.63;;;11.50;99.90;;;;;;5096031;28;20059;-85
2022/01/02 03:23:30;;;;;;;26.88;13.10;;;11.50;99.90;;;;;;5096219;28;20062;-86
2022/01/02 03:25:56;;;;;;;25.48;12.77;;;11.50;99.90;;;;;;5096046;28;20040;-86
2022/01/02 03:28:22;;;;;;;21.92;11.85;;;11.50;99.90;;;;;;5095716;28;20802;-86
2022/01/02 03:30:48;;;;;;;25.67;13.18;;;11.50;99.90;;;;;;5096199;28;20051;-85
2022/01/02 03:33:13;;;;;;;24.00;12.85;;;11.50;99.90;;;;;;5095257;28;20051;-86
2022/01/02 03:35:39;;;;;;;27.45;12.65;;;11.50;99.90;;;;;;5095906;28;20094;-86
2022/01/02 03:38:05;;;;;;;33.75;12.50;;;11.50;99.90;;;;;;5112671;28;20475;-85
2022/01/02 03:40:31;;;;;;;24.42;12.65;;;11.50;99.90;;;;;;5112621;28;20051;-86
2022/01/02 03:42:56;;;;;;;22.80;13.07;;;11.50;99.90;;;;;;5095833;28;20501;-86
2022/01/02 03:45:22;;;;;;;26.23;12.20;;;11.50;99.90;;;;;;5078501;28;20056;-87
2022/01/02 03:47:48;;;;;;;24.05;11.50;;;11.50;99.90;;;;;;5095670;28;20092;-86
2022/01/02 03:50:14;;;;;;;27.90;12.32;;;11.50;99.90;;;;;;5077577;28;20124;-86
2022/01/02 03:52:39;;;;;;;24.98;11.98;;;11.50;99.90;;;;;;5113585;28;20063;-86
2022/01/02 03:55:06;;;;;;;23.98;12.13;;;11.70;99.90;;;;;;5112126;28;20055;-85
2022/01/02 03:57:31;;;;;;;23.55;10.68;;;11.60;99.90;;;;;;5078241;28;20100;-86
2022/01/02 03:59:57;;;;;;;27.67;12.38;;;11.60;99.90;;;;;;5112481;28;20052;-86
2022/01/02 04:02:23;;;;;;;23.30;10.40;;;11.60;99.90;;;;;;5110537;28;20058;-86
2022/01/02 04:04:48;;;;;;;22.10;10.70;;;11.70;99.90;;;;;;5112286;28;20127;-85
2022/01/02 04:07:14;;;;;;;22.38;10.38;;;11.60;99.90;;;;;;5094764;28;20074;-86
2022/01/02 04:09:40;;;;;;;23.80;10.88;;;11.60;99.90;;;;;;5095135;28;20058;-85
2022/01/02 04:12:06;;;;;;;23.48;10.02;;;11.70;99.90;;;;;;5112479;28;20050;-85
2022/01/02 04:14:31;;;;;;;19.48;10.02;;;11.80;99.90;;;;;;5094730;28;20052;-85
2022/01/02 04:16:57;;;;;;;18.88;10.38;;;11.70;99.90;;;;;;5112191;28;20043;-85
2022/01/02 04:19:23;;;;;;;23.45;10.20;;;11.60;99.90;;;;;;5094298;28;20055;-85
2022/01/02 04:21:48;;;;;;;20.00;10.10;;;11.70;99.90;;;;;;5111623;28;20036;-85
2022/01/02 04:24:14;;;;;;;15.85;9.57;;;11.70;99.90;;;;;;5111218;28;20104;-85
2022/01/02 04:26:40;;;;;;;19.08;9.30;;;11.70;99.90;;;;;;5129058;27;20051;-86
2022/01/02 04:29:05;;;;;;;22.52;9.30;;;11.70;99.90;;;;;;5095001;28;20051;-87
2022/01/02 04:31:31;;;;;;;24.88;10.50;;;11.70;99.90;;;;;;5111057;28;20057;-85
2022/01/02 04:33:57;;;;;;;22.13;9.52;;;11.70;99.90;;;;;;5094855;28;20426;-85
2022/01/02 04:36:22;;;;;;;25.13;10.75;;;11.70;99.90;;;;;;5112301;28;20489;-86
2022/01/02 04:38:48;;;;;;;27.10;9.80;;;11.70;99.90;;;;;;5111477;28;20372;-86
2022/01/02 04:41:14;;;;;;;22.15;9.60;;;11.70;99.90;;;;;;5128893;27;20100;-85
2022/01/02 04:43:40;;;;;;;24.35;8.90;;;11.80;99.90;;;;;;5111471;28;20043;-85
2022/01/02 04:46:06;;;;;;;21.65;9.23;;;11.80;99.90;;;;;;5111565;28;20595;-86
2022/01/02 04:48:32;;;;;;;20.85;9.63;;;11.80;99.90;;;;;;5128288;27;20058;-86
2022/01/02 04:50:58;;;;;;;20.90;9.63;;;11.80;99.90;;;;;;5111265;28;20399;-86
2022/01/02 04:53:23;;;;;;;24.42;9.10;;;11.80;99.90;;;;;;5111181;28;20471;-86
2022/01/02 04:55:50;;;;;;;22.48;9.45;;;11.90;99.90;;;;;;5111406;28;20135;-86
2022/01/02 04:58:16;;;;;;;24.95;8.75;;;12.00;99.90;;;;;;5128207;27;20055;-86
2022/01/02 05:00:42;;;;;;;17.48;8.63;;;11.90;99.90;;;;;;5128001;27;20135;-86
2022/01/02 05:03:07;;;;;;;26.83;9.35;;;11.80;99.90;;;;;;5094368;28;20450;-87
2022/01/02 05:05:33;;;;;;;21.42;8.35;;;11.80;99.90;;;;;;5093795;28;20043;-86
2022/01/02 05:07:59;;;;;;;14.90;7.90;;;11.80;99.90;;;;;;5111327;28;20047;-86
2022/01/02 05:10:24;;;;;;;21.95;8.60;;;11.90;99.90;;;;;;5093571;28;20096;-86
2022/01/02 05:12:50;;;;;;;24.08;9.48;;;12.00;99.90;;;;;;5110923;28;20047;-86
2022/01/02 05:15:16;;;;;;;20.33;8.00;;;11.90;99.90;;;;;;5093599;28;20078;-86
2022/01/02 05:17:43;;;;;;;20.15;8.25;;;11.90;99.90;;;;;;5093424;28;20140;-86
2022/01/02 05:20:09;;;;;;;19.98;8.23;;;12.00;99.90;;;;;;5099501;28;20364;-84
2022/01/02 05:22:34;;;;;;;15.80;6.18;;;12.00;99.90;;;;;;5097878;28;20096;-84
2022/01/02 05:25:00;;;;;;;15.80;7.32;;;12.00;99.90;;;;;;5147085;27;20144;-86
2022/01/02 05:27:26;;;;;;;18.77;7.90;;;12.00;99.90;;;;;;5111393;28;20135;-86
2022/01/02 05:29:51;;;;;;;20.90;7.95;;;12.00;99.90;;;;;;5110864;28;20051;-86
2022/01/02 05:32:17;;;;;;;19.48;8.43;;;12.00;99.90;;;;;;5093517;28;20059;-85
2022/01/02 05:34:42;;;;;;;17.40;7.60;;;12.00;99.90;;;;;;5110039;28;20166;-85
2022/01/02 05:37:08;;;;;;;21.40;7.95;;;12.20;99.90;;;;;;5093517;28;20387;-85
2022/01/02 05:39:34;;;;;;;18.17;7.25;;;12.10;99.90;;;;;;5109962;28;20047;-86
2022/01/02 05:42:00;;;;;;;17.90;7.57;;;12.00;99.90;;;;;;5127703;27;20055;-86
2022/01/02 05:44:26;;;;;;;13.35;7.13;;;12.10;99.90;;;;;;5075677;28;20476;-84
2022/01/02 05:46:52;;;;;;;21.42;8.07;;;12.10;99.90;;;;;;5093299;28;20056;-85
2022/01/02 05:49:18;;;;;;;21.83;8.10;;;12.10;99.90;;;;;;5109760;28;20441;-86
2022/01/02 05:51:43;;;;;;;15.98;7.20;;;12.00;99.90;;;;;;5109810;28;20130;-85
2022/01/02 05:54:09;;;;;;;19.58;7.97;;;12.00;99.90;;;;;;5093296;28;20059;-85
2022/01/02 05:56:35;;;;;;;18.45;7.32;;;12.00;99.90;;;;;;5075854;28;20043;-85
2022/01/02 05:59:00;;;;;;;18.75;7.22;;;12.00;99.90;;;;;;5127047;27;20483;-86
2022/01/02 06:01:26;;;;;;;17.45;6.75;;;12.00;99.90;;;;;;5111257;28;20051;-85
2022/01/02 06:03:52;;;;;;;14.55;7.00;;;12.10;99.90;;;;;;5093261;28;20148;-85
2022/01/02 06:06:18;;;;;;;18.98;7.53;;;12.10;99.90;;;;;;5093433;28;20061;-86
2022/01/02 06:08:43;;;;;;;18.75;7.25;;;12.10;99.90;;;;;;5092219;28;20130;-84
2022/01/02 06:11:09;;;;;;;18.55;7.35;;;12.20;99.90;;;;;;5110176;28;20059;-85
2022/01/02 06:13:35;;;;;;;22.67;8.10;;;12.20;99.90;;;;;;5109439;28;20044;-86
2022/01/02 06:16:00;;;;;;;20.13;7.78;;;12.10;99.90;;;;;;5093298;28;20051;-85
2022/01/02 06:18:26;;;;;;;19.58;7.38;;;12.10;99.90;;;;;;5127020;28;20092;-85
2022/01/02 06:20:52;;;;;;;16.45;7.13;;;12.10;99.90;;;;;;5092612;28;20099;-86
2022/01/02 06:23:17;;;;;;;19.00;7.05;;;12.10;99.90;;;;;;5127229;28;20180;-85
2022/01/02 06:25:44;;;;;;;18.48;6.78;;;12.10;99.90;;;;;;5093368;27;20043;-84
2022/01/02 06:28:10;;;;;;;21.02;6.78;;;12.10;99.90;;;;;;5097349;28;20055;-85
2022/01/02 06:30:35;;;;;;;17.85;6.72;;;12.20;99.90;;;;;;5096799;28;20525;-85
2022/01/02 06:33:01;;;;;;;18.23;7.13;;;12.30;99.90;;;;;;5131380;27;20040;-85
2022/01/02 06:35:29;;;;;;;18.58;7.22;;;12.20;99.90;;;;;;5131783;27;20134;-85
2022/01/02 06:37:55;;;;;;;21.63;6.95;;;12.20;99.90;;;;;;5130023;27;20078;-85
2022/01/02 06:40:21;;;;;;;19.13;6.80;;;12.30;99.90;;;;;;5080209;28;20148;-84
2022/01/02 06:42:46;;;;;;;15.32;5.68;;;12.30;99.90;;;;;;5096196;28;20503;-85
2022/01/02 06:45:12;;;;;;;17.48;5.93;;;12.20;99.90;;;;;;5131059;27;20047;-85
2022/01/02 06:47:38;;;;;;;20.92;6.90;;;12.30;99.90;;;;;;5114581;28;20044;-84
2022/01/02 06:50:04;;;;;;;14.27;5.80;;;12.50;99.90;;;;;;5096357;28;20104;-85
2022/01/02 06:52:30;;;;;;;16.30;5.75;;;12.40;99.90;;;;;;5114820;28;20098;-85
2022/01/02 06:54:56;;;;;;;12.73;5.35;;;12.40;99.90;;;;;;5130192;27;20087;-85
2022/01/02 06:57:21;;;;;;;12.80;4.97;;;12.40;99.90;;;;;;5130465;27;20039;-85
2022/01/02 06:59:48;;;;;;;17.33;6.18;;;12.30;99.90;;;;;;5096014;28;20047;-84
2022/01/02 07:02:14;;;;;;;12.57;5.00;;;12.30;99.90;;;;;;5130921;27;20047;-85
2022/01/02 07:04:39;;;;;;;15.07;5.30;;;12.30;99.90;;;;;;5113032;28;20060;-84
2022/01/02 07:07:05;;;;;;;17.50;5.28;;;12.40;99.90;;;;;;5130825;27;20051;-85
2022/01/02 07:09:32;;;;;;;12.20;5.82;;;12.40;99.90;;;;;;5096877;28;20135;-85
2022/01/02 07:11:58;;;;;;;16.95;4.80;;;12.40;99.90;;;;;;5083594;28;20047;-84
2022/01/02 07:14:26;;;;;;;16.27;5.55;;;12.30;99.90;;;;;;5090371;28;20127;-84
2022/01/02 07:16:53;;;;;;;15.00;5.30;;;12.30;99.90;;;;;;5095910;28;20059;-84
2022/01/02 07:19:19;;;;;;;11.45;5.03;;;12.30;99.90;;;;;;5095994;28;20055;-83
2022/01/02 07:21:45;;;;;;;11.82;4.97;;;12.30;99.90;;;;;;5095634;28;20095;-84
2022/01/02 07:24:10;;;;;;;13.13;5.60;;;12.50;99.90;;;;;;5130101;27;20059;-84
2022/01/02 07:26:36;;;;;;;12.27;5.10;;;12.40;99.90;;;;;;5079331;28;20052;-85
2022/01/02 07:29:02;;;;;;;11.10;5.18;;;12.30;99.90;;;;;;5112373;28;20051;-84
2022/01/02 07:31:27;;;;;;;13.73;5.38;;;12.30;99.90;;;;;;5079210;28;20048;-84
2022/01/02 07:33:53;;;;;;;17.25;5.13;;;12.40;99.90;;;;;;5129166;27;20047;-84
2022/01/02 07:36:18;;;;;;;12.93;5.05;;;12.30;99.90;;;;;;5112493;28;20044;-84
2022/01/02 07:38:44;;;;;;;10.98;4.63;;;12.20;99.90;;;;;;5078228;28;20043;-84
2022/01/02 07:41:10;;;;;;;12.98;6.22;;;12.30;99.90;;;;;;5130183;27;20092;-84
2022/01/02 07:43:35;;;;;;;15.23;5.22;;;12.20;99.90;;;;;;5130387;27;20059;-84
2022/01/02 07:46:01;;;;;;;11.18;4.72;;;12.30;99.90;;;;;;5095709;28;20347;-86
2022/01/02 07:48:27;;;;;;;13.68;5.75;;;12.20;99.90;;;;;;5113289;28;20062;-84
2022/01/02 07:50:52;;;;;;;12.00;5.28;;;12.10;99.90;;;;;;5111978;28;20087;-84
2022/01/02 07:53:18;;;;;;;12.13;5.28;;;12.10;99.90;;;;;;5096039;28;20047;-84
2022/01/02 07:55:43;;;;;;;14.18;5.55;;;12.10;99.90;;;;;;5112795;28;20040;-84
2022/01/02 07:58:10;;;;;;;11.35;5.03;;;12.10;99.90;;;;;;5096182;28;20054;-85
2022/01/02 08:00:35;;;;;;;13.57;5.55;;;12.00;99.90;;;;;;5096591;28;20050;-85
2022/01/02 08:03:01;;;;;;;12.27;5.45;;;12.10;99.90;;;;;;5096121;28;20043;-84
2022/01/02 08:05:27;;;;;;;10.70;5.13;;;12.00;99.90;;;;;;5129891;27;20055;-84
2022/01/02 08:07:53;;;;;;;11.45;5.30;;;12.10;99.90;;;;;;5129000;27;20489;-84
2022/01/02 08:10:19;;;;;;;12.27;5.68;;;12.20;99.90;;;;;;5113915;28;20047;-85
2022/01/02 08:12:47;;;;;;;12.10;5.35;;;12.10;99.90;;;;;;5113203;28;20047;-85
2022/01/02 08:15:14;;;;;;;9.38;5.30;;;12.10;99.90;;;;;;5113791;28;20051;-84
2022/01/02 08:17:39;;;;;;;8.23;5.32;;;12.20;99.90;;;;;;5095591;28;20047;-84
2022/01/02 08:20:05;;;;;;;11.68;5.40;;;12.20;99.90;;;;;;5094993;28;20119;-84
2022/01/02 08:22:31;;;;;;;13.82;6.78;;;12.10;99.90;;;;;;5095276;28;20215;-84
2022/01/02 08:24:57;;;;;;;17.20;6.97;;;12.00;99.90;;;;;;5128820;27;20204;-84
2022/01/02 08:27:22;;;;;;;13.68;5.90;;;12.00;99.90;;;;;;5112108;28;20062;-84
2022/01/02 08:29:48;;;;;;;14.43;6.32;;;12.00;99.90;;;;;;5112696;28;20050;-84
2022/01/02 08:32:14;;;;;;;12.73;5.90;;;11.90;99.90;;;;;;5111975;28;20064;-84
2022/01/02 08:34:39;;;;;;;11.60;5.57;;;12.00;99.90;;;;;;5111854;28;20047;-83
2022/01/02 08:37:05;;;;;;;11.35;5.90;;;12.10;99.90;;;;;;5094119;28;20464;-84
2022/01/02 08:39:30;;;;;;;11.23;6.18;;;12.00;99.90;;;;;;5077712;28;20043;-83
2022/01/02 08:41:56;;;;;;;9.77;5.57;;;12.00;99.90;;;;;;5094087;28;20422;-85
2022/01/02 08:44:22;;;;;;;13.40;6.03;;;12.00;99.90;;;;;;5128400;27;20046;-85
2022/01/02 08:46:48;;;;;;;10.45;5.65;;;12.00;99.90;;;;;;5061164;28;20055;-84
2022/01/02 08:49:13;;;;;;;11.18;6.30;;;11.90;99.90;;;;;;5111301;28;20062;-85
2022/01/02 08:51:39;;;;;;;12.25;5.55;;;11.80;99.90;;;;;;5094733;28;20051;-85
2022/01/02 08:54:05;;;;;;;12.02;6.15;;;11.90;99.90;;;;;;5094033;28;20402;-85
2022/01/02 08:56:38;;;;;;;10.63;5.97;;;11.90;99.90;;;;;;5112588;28;20502;-84
2022/01/02 08:59:03;;;;;;;10.15;5.80;;;11.90;99.90;;;;;;5093561;28;20047;-85
2022/01/02 09:01:29;;;;;;;10.32;6.55;;;11.80;99.90;;;;;;5094482;28;20135;-85
2022/01/02 09:03:55;;;;;;;10.45;5.80;;;11.70;99.90;;;;;;5093663;28;20079;-84
2022/01/02 09:06:20;;;;;;;12.27;5.88;;;11.80;99.90;;;;;;5094470;28;20427;-84
2022/01/02 09:08:46;;;;;;;13.18;6.30;;;11.80;99.90;;;;;;5094530;28;20074;-85
2022/01/02 09:11:11;;;;;;;13.40;5.88;;;11.80;99.90;;;;;;5127786;27;20127;-86
2022/01/02 09:13:37;;;;;;;10.40;6.07;;;11.80;99.90;;;;;;5077112;28;20051;-85
2022/01/02 09:16:03;;;;;;;11.45;6.35;;;11.80;99.90;;;;;;5127517;27;20377;-86
2022/01/02 09:18:29;;;;;;;11.93;6.53;;;11.80;99.90;;;;;;5111008;28;20759;-86
2022/01/02 09:20:54;;;;;;;17.55;6.25;;;11.80;99.90;;;;;;5110292;28;20039;-84
2022/01/02 09:23:20;;;;;;;12.50;6.82;;;11.80;99.90;;;;;;5128006;27;20063;-86
2022/01/02 09:25:45;;;;;;;13.90;5.90;;;11.80;99.90;;;;;;5094029;28;20142;-86
2022/01/02 09:28:11;;;;;;;12.68;5.95;;;11.80;99.90;;;;;;5093022;28;20487;-85
2022/01/02 09:30:37;;;;;;;13.05;5.97;;;11.80;99.90;;;;;;5093832;28;20044;-90
2022/01/02 09:33:03;;;;;;;13.18;6.20;;;11.80;99.90;;;;;;5111441;28;20464;-90
2022/01/02 09:35:29;;;;;;;10.52;5.88;;;11.90;99.90;;;;;;5111941;28;20080;-91
2022/01/02 09:37:55;;;;;;;16.90;6.75;;;12.00;99.90;;;;;;5093968;28;20058;-90
2022/01/02 09:40:20;;;;;;;12.70;5.80;;;12.10;99.90;;;;;;5127717;27;20043;-91
2022/01/02 09:42:46;;;;;;;9.05;5.95;;;12.10;99.90;;;;;;5093867;28;20670;-90
2022/01/02 09:45:13;;;;;;;12.77;5.82;;;12.10;99.90;;;;;;5109801;28;20052;-90
2022/01/02 09:47:40;;;;;;;8.32;4.97;;;12.10;99.90;;;;;;5111082;28;20077;-90
2022/01/02 09:50:07;;;;;;;11.82;6.25;;;12.20;99.90;;;;;;5109992;28;20124;-90
2022/01/02 09:52:32;;;;;;;13.82;6.35;;;12.20;99.90;;;;;;5128620;27;20388;-91
2022/01/02 09:54:58;;;;;;;10.05;5.28;;;12.10;99.90;;;;;;5076490;28;20047;-90
2022/01/02 09:57:24;;;;;;;8.43;4.90;;;12.20;99.90;;;;;;5093570;28;20051;-90
2022/01/02 09:59:49;;;;;;;16.33;6.03;;;12.20;99.90;;;;;;5111119;28;20475;-94
2022/01/02 10:02:15;;;;;;;10.85;5.63;;;12.20;99.90;;;;;;5092601;28;20051;-94
2022/01/02 10:04:41;;;;;;;8.32;5.10;;;12.30;99.90;;;;;;5060168;28;20052;-92
2022/01/02 10:07:26;;;;;;;12.55;6.20;;;12.30;99.90;;;;;;5076042;28;20064;-90
2022/01/02 10:09:52;;;;;;;;;;;12.40;99.90;;;;;;5094304;28;20066;-89
2022/01/02 10:12:25;;;;;;;11.32;5.50;;;12.30;99.90;;;;;;5093197;28;20014;-89
2022/01/02 10:15:06;;;;;;;13.57;6.07;;;12.40;99.90;;;;;;5100334;28;20052;-90
2022/01/02 10:18:04;;;;;;;9.60;5.63;;;12.40;99.90;;;;;;5109763;28;20040;-92
2022/01/02 10:20:36;;;;;;;10.65;6.15;;;12.30;99.90;;;;;;5073228;28;20052;-91
2022/01/02 10:23:18;;;;;;;8.65;6.03;;;12.30;99.90;;;;;;5089571;28;20079;-87
2022/01/02 10:25:57;;;;;;;9.38;5.32;;;12.30;99.90;;;;;;5107799;28;20044;-92
2022/01/02 10:28:27;;;;;;;14.70;6.05;;;12.40;99.90;;;;;;5089235;28;20052;-91
2022/01/02 10:30:55;;;;;;;11.73;6.28;;;12.40;99.90;;;;;;5090181;28;20052;-92
2022/01/02 10:33:21;;;;;;;10.52;6.30;;;12.30;99.90;;;;;;5106673;28;20055;-92
2022/01/02 10:35:47;;;;;;;11.52;6.32;;;12.30;99.90;;;;;;5089903;28;20058;-90
2022/01/02 10:38:16;;;;;;;12.68;6.50;;;12.30;99.90;;;;;;5072261;28;20044;-90
2022/01/02 10:40:42;;;;;;;9.77;6.43;;;12.20;99.90;;;;;;5072693;28;20138;-89
2022/01/02 10:43:23;;;;;;;9.68;6.25;;;12.30;99.90;;;;;;5089086;28;20406;-89
2022/01/02 10:45:50;;;;;;;11.18;7.05;;;12.40;99.90;;;;;;5089686;28;20074;-90
2022/01/02 10:48:28;;;;;;;8.75;6.75;;;12.40;99.90;;;;;;5078522;28;20136;-90
2022/01/02 10:51:07;;;;;;;12.23;6.00;;;12.40;99.90;;;;;;5081667;28;20060;-88
2022/01/02 10:53:34;;;;;;;8.88;5.95;;;12.40;99.90;;;;;;5106636;28;20071;-91
2022/01/02 10:56:00;;;;;;;10.57;5.93;;;12.50;99.90;;;;;;5090020;28;20048;-93
2022/01/02 10:58:26;;;;;;;12.63;6.82;;;12.70;99.90;;;;;;5072367;28;20962;-91
2022/01/02 11:00:52;;;;;;;11.23;6.32;;;12.70;99.90;;;;;;5085240;28;20075;-91
2022/01/02 11:03:24;;;;;;;12.45;6.35;;;12.60;99.90;;;;;;5099533;28;20108;-93
2022/01/02 11:05:55;;;;;;;11.25;5.47;;;12.50;99.90;;;;;;5073126;28;20048;-90
2022/01/02 11:08:21;;;;;;;10.45;6.05;;;12.60;99.90;;;;;;5089598;28;20139;-92
2022/01/02 11:10:46;;;;;;;8.98;5.85;;;12.70;99.90;;;;;;5089720;28;20450;-89
2022/01/02 11:13:12;;;;;;;13.13;7.05;;;12.60;99.90;;;;;;5075464;28;20052;-91
2022/01/02 11:15:38;;;;;;;11.07;5.95;;;12.70;99.90;;;;;;5060787;28;20063;-87
2022/01/02 11:18:03;;;;;;;10.80;5.25;;;12.60;99.90;;;;;;5116223;27;20119;-90
2022/01/02 11:20:31;;;;;;;10.05;6.07;;;12.50;99.90;;;;;;5078250;28;20108;-91
2022/01/02 11:23:00;;;;;;;12.15;6.60;;;12.60;99.90;;;;;;5112441;28;20047;-92
2022/01/02 11:25:51;;;;;;;9.10;5.72;;;12.50;99.90;;;;;;5112489;28;20475;-90
2022/01/02 11:28:27;;;;;;;12.07;6.10;;;12.50;99.90;;;;;;5095623;28;20062;-90
2022/01/02 11:30:53;;;;;;;10.15;6.15;;;12.40;99.90;;;;;;5096246;28;20051;-89
2022/01/02 11:33:25;;;;;;;12.30;5.80;;;12.60;99.90;;;;;;5112152;28;20392;-92
2022/01/02 11:35:51;;;;;;;11.20;5.60;;;12.60;99.90;;;;;;5096274;28;20082;-91
2022/01/02 11:38:17;;;;;;;9.50;5.78;;;12.50;99.90;;;;;;5078036;28;20075;-88
2022/01/02 11:40:56;;;;;;;11.10;5.47;;;12.60;99.90;;;;;;5095883;28;20090;-89
2022/01/02 11:43:49;;;;;;;12.77;6.15;;;12.60;99.90;;;;;;5112261;28;20058;-89
2022/01/02 11:46:25;;;;;;;10.63;5.97;;;12.60;99.90;;;;;;5112705;28;20043;-85
2022/01/02 11:49:04;;;;;;;12.50;5.80;;;12.50;99.90;;;;;;5095309;28;20092;-86
2022/01/02 11:51:51;;;;;;;11.70;5.15;;;12.60;99.90;;;;;;5112376;28;20115;-88
2022/01/02 11:54:30;;;;;;;9.75;5.45;;;12.40;99.90;;;;;;5112615;28;20052;-90
2022/01/02 11:56:56;;;;;;;14.27;5.93;;;12.50;99.90;;;;;;5113692;28;20177;-88
2022/01/02 11:59:40;;;;;;;10.32;5.45;;;12.40;99.90;;;;;;5095620;28;20496;-89
2022/01/02 12:02:20;;;;;;;8.57;5.30;;;12.50;99.90;;;;;;5113478;28;20058;-89
2022/01/02 12:07:33;;;;;;;9.40;4.88;;;12.50;99.90;;;;;;5112042;28;20053;-90
2022/01/02 12:10:17;;;;;;;13.50;5.78;;;12.50;99.90;;;;;;5112362;28;20488;-86
2022/01/02 12:13:10;;;;;;;10.20;4.65;;;12.40;99.90;;;;;;5112819;28;20039;-93
2022/01/02 12:15:38;;;;;;;15.27;4.78;;;12.40;99.90;;;;;;5112487;28;20052;-92
2022/01/02 12:18:26;;;;;;;9.80;4.40;;;12.40;99.90;;;;;;5113231;28;20047;-92
2022/01/02 12:25:58;;;;;;;11.07;4.07;;;12.50;99.90;;;;;;5111814;28;20051;-87
2022/01/02 12:28:24;;;;;;;9.90;3.40;;;12.40;99.90;;;;;;5112056;28;20048;-90
2022/01/02 12:30:51;;;;;;;10.70;3.50;;;12.40;99.90;;;;;;5095685;28;20046;-89
2022/01/02 12:33:27;;;;;;;12.77;3.75;;;12.40;99.90;;;;;;5095359;28;20088;-89
2022/01/02 12:35:53;;;;;;;11.82;3.40;;;12.30;99.90;;;;;;5095443;28;20043;-90
2022/01/02 12:38:18;;;;;;;12.40;3.30;;;12.50;99.90;;;;;;5095957;28;20036;-92
2022/01/02 12:40:45;;;;;;;12.40;3.30;;;12.60;99.90;;;;;;5095846;28;20038;-96
2022/01/02 12:43:10;;;;;;;10.57;3.30;;;12.50;99.90;;;;;;5113752;28;20043;-86
2022/01/02 12:45:36;;;;;;;9.48;3.38;;;12.50;99.90;;;;;;5078394;28;20043;-88
2022/01/02 12:48:02;;;;;;;12.80;3.22;;;12.40;99.90;;;;;;5095430;28;20058;-87
2022/01/02 12:50:29;;;;;;;14.45;3.40;;;12.40;99.90;;;;;;5111633;28;20072;-90
2022/01/02 12:52:55;;;;;;;13.93;4.05;;;12.50;99.90;;;;;;5095195;28;20463;-90